EDT,Max TemperatureF,Mean TemperatureF,Min TemperatureF,Max Dew PointF,MeanDew PointF,Min DewpointF,Max Humidity, Mean Humidity, Min Humidity, Max Sea Level PressureIn, Mean Sea Level PressureIn, Min Sea Level PressureIn, Max VisibilityMiles, Mean VisibilityMiles, Min VisibilityMiles, Max Wind SpeedMPH, Mean Wind SpeedMPH, Max Gust SpeedMPH,PrecipitationIn, CloudCover, Events, WindDirDegrees
2013-3-1,37,34,32,34,30,23,93,82,65,30.02,29.97,29.91,10,10,2,5,1,,0.00,7,Snow,357
2013-3-2,33,32,30,28,24,21,93,73,60,30.05,30.02,29.99,10,9,2,7,3,,0.00,6,Snow,316
2013-3-3,33,32,30,27,21,14,86,66,48,30.09,30.05,30.02,10,10,5,9,5,,0.00,5,Snow,279
2013-3-4,44,32,21,30,19,14,87,56,29,30.21,30.12,30.06,10,10,7,8,2,,0.00,2,Rain,235
2013-3-5,48,40,32,43,35,28,100,85,66,30.08,29.83,29.50,10,8,2,31,4,36,0.00,5,Rain-Snow,77
2013-3-6,41,36,32,34,32,30,100,88,70,30.22,29.94,29.60,10,7,2,20,8,29,0.00,8,Snow,241
2013-3-7,44,38,33,32,31,28,93,79,57,30.36,30.30,30.22,10,8,5,8,3,,0.00,6,,273
2013-3-8,51,40,30,30,27,23,93,66,35,30.47,30.40,30.35,10,10,5,8,3,,0.00,1,,27
2013-3-9,62,44,26,32,29,23,93,65,27,30.40,30.28,30.13,10,10,4,9,1,,0.00,0,,82
2013-3-10,77,59,41,37,31,27,76,41,16,30.14,30.04,29.94,10,10,10,9,2,18,0.00,0,,143
2013-3-11,64,54,44,54,39,30,93,51,30,29.94,29.84,29.70,10,9,4,13,6,26,0.00,3,Rain,169
2013-3-12,44,38,33,43,33,30,93,76,61,30.04,29.98,29.86,10,10,7,14,6,17,0.00,7,,247
2013-3-13,37,34,30,34,29,21,100,84,56,30.29,30.13,30.02,10,8,0,14,5,22,0.00,4,Rain-Snow,265
2013-3-14,46,36,26,27,21,14,86,58,27,30.37,30.28,30.21,10,10,10,13,5,23,0.00,1,Snow,261
2013-3-15,60,43,26,43,30,19,87,62,36,30.20,30.01,29.86,10,10,10,13,2,17,0.00,0,Rain,241
2013-3-16,68,55,42,54,44,34,100,79,52,30.02,29.78,29.63,10,9,1,12,3,21,0.00,4,Rain,311
2013-3-17,41,37,33,34,33,32,100,88,75,30.18,30.10,30.01,10,6,1,7,2,,0.00,8,Rain-Snow,59
2013-3-18,53,44,35,50,42,34,100,89,82,30.05,29.81,29.66,10,7,1,16,7,24,0.00,7,Rain,136
2013-3-19,51,44,37,45,25,9,87,50,22,30.09,29.95,29.77,10,10,5,23,10,32,0.00,3,,258
2013-3-20,51,40,28,21,18,14,74,46,30,30.09,29.99,29.86,10,10,10,26,6,33,0.00,2,,262
2013-3-21,33,28,24,19,14,10,80,55,41,30.04,29.98,29.94,10,10,7,13,5,21,0.00,6,Snow,280
2013-3-22,46,32,19,21,17,12,86,54,25,30.09,30.04,30.00,10,10,10,9,3,18,0.00,0,,259
2013-3-23,55,40,24,28,22,18,86,57,24,30.09,30.03,29.92,10,10,10,8,1,,0.00,3,,276
2013-3-24,42,38,33,36,28,21,100,73,49,29.92,29.68,29.42,10,8,1,13,5,20,0.00,5,Rain-Snow,57
2013-3-25,41,38,35,37,33,32,100,89,81,29.86,29.60,29.42,10,6,1,20,8,26,0.00,8,Rain-Snow,243
2013-3-26,44,38,33,34,31,27,93,77,53,30.20,30.04,29.86,10,10,5,10,4,17,0.00,7,Snow,281
2013-3-27,48,40,33,32,29,25,87,69,43,30.29,30.25,30.20,10,10,10,10,5,18,0.00,7,,264
2013-3-28,53,40,28,28,26,23,87,60,33,30.33,30.29,30.27,10,10,10,10,2,25,0.00,3,,278
2013-3-29,59,42,26,32,28,25,93,61,29,30.34,30.28,30.21,10,10,10,9,1,16,0.00,2,,267
2013-3-30,62,48,33,34,30,25,93,56,26,30.27,30.17,29.99,10,10,10,8,1,,0.00,2,,233
2013-3-31,55,48,41,50,42,34,100,82,66,29.99,29.85,29.80,10,9,3,10,2,16,0.00,5,Rain,242